Time;durP1;ratioP1;P1;durP2;ratioP2;P2;SDS_P1;SDS_P2;PMS_P1;PMS_P2;Temp;Humidity;BMP_temperature;BMP_pressure;BME280_temperature;BME280_humidity;BME280_pressure;Samples;Min_cycle;Max_cycle;Signal;HPM_P1;HPM_P2
2023/09/05 00:00:06;;;;;;;4.53;2.83;;;13.50;99.90;;;;;;5109905;28;20193;-65
2023/09/05 00:02:32;;;;;;;7.40;2.73;;;13.40;99.90;;;;;;5110770;28;20202;-65
2023/09/05 00:04:58;;;;;;;10.13;2.87;;;13.40;99.90;;;;;;5110609;28;20193;-65
2023/09/05 00:07:24;;;;;;;7.53;2.80;;;13.40;99.90;;;;;;5109972;28;20195;-65
2023/09/05 00:09:49;;;;;;;6.33;2.80;;;13.30;99.90;;;;;;5110619;28;20177;-65
2023/09/05 00:12:15;;;;;;;5.00;2.77;;;13.30;99.90;;;;;;5110625;28;20173;-65
2023/09/05 00:14:41;;;;;;;11.47;2.97;;;13.40;99.90;;;;;;5109920;28;20268;-65
2023/09/05 00:17:06;;;;;;;7.90;2.67;;;13.40;99.90;;;;;;5109912;28;20207;-66
2023/09/05 00:19:32;;;;;;;6.43;3.30;;;13.30;99.90;;;;;;5110431;28;20650;-65
2023/09/05 00:21:57;;;;;;;10.00;3.30;;;13.30;99.90;;;;;;5110617;28;20219;-65
2023/09/05 00:24:25;;;;;;;5.33;3.20;;;13.20;99.90;;;;;;5110507;28;20201;-65
2023/09/05 00:26:51;;;;;;;7.20;3.13;;;13.20;99.90;;;;;;5110039;28;20516;-65
2023/09/05 00:29:20;;;;;;;5.67;2.83;;;13.10;99.90;;;;;;5110500;28;20181;-65
2023/09/05 00:31:49;;;;;;;6.60;2.90;;;13.10;99.90;;;;;;5110444;28;20177;-65
2023/09/05 00:34:15;;;;;;;10.80;2.90;;;13.10;99.90;;;;;;5113153;28;20398;-65
2023/09/05 00:36:42;;;;;;;8.47;3.17;;;13.10;99.90;;;;;;5114126;28;20165;-66
2023/09/05 00:39:09;;;;;;;6.03;3.13;;;13.10;99.90;;;;;;5113961;28;20205;-65
2023/09/05 00:41:37;;;;;;;4.63;2.70;;;13.10;99.90;;;;;;5113828;28;20202;-65
2023/09/05 00:44:04;;;;;;;5.20;2.80;;;13.00;99.90;;;;;;5113983;28;20189;-65
2023/09/05 00:46:31;;;;;;;5.17;2.93;;;13.00;99.90;;;;;;5113856;28;20538;-66
2023/09/05 00:48:57;;;;;;;10.60;3.37;;;13.00;99.90;;;;;;5113332;28;20523;-65
2023/09/05 00:51:25;;;;;;;10.50;3.67;;;13.00;99.90;;;;;;5113719;28;20180;-65
2023/09/05 00:53:51;;;;;;;7.40;3.13;;;12.90;99.90;;;;;;5113685;28;20674;-65
2023/09/05 00:56:17;;;;;;;9.93;3.13;;;12.90;99.90;;;;;;5113698;28;20703;-65
2023/09/05 00:58:42;;;;;;;8.23;2.97;;;12.80;99.90;;;;;;5113003;28;20189;-66
2023/09/05 01:01:08;;;;;;;5.67;2.97;;;12.80;99.90;;;;;;5113520;28;20178;-65
2023/09/05 01:03:34;;;;;;;7.53;2.90;;;12.80;99.90;;;;;;5113480;28;20215;-65
2023/09/05 01:06:06;;;;;;;6.70;3.30;;;12.80;99.90;;;;;;5113281;28;20185;-65
2023/09/05 01:08:45;;;;;;;7.45;3.38;;;12.80;99.90;;;;;;5111357;28;20460;-66
2023/09/05 01:11:14;;;;;;;5.83;2.93;;;12.80;99.90;;;;;;5113513;28;20570;-65
2023/09/05 01:13:41;;;;;;;9.57;3.00;;;12.80;99.90;;;;;;5113518;28;20268;-65
2023/09/05 01:16:08;;;;;;;9.00;3.40;;;12.80;99.90;;;;;;5113265;28;20244;-65
2023/09/05 01:18:34;;;;;;;5.27;3.00;;;12.70;99.90;;;;;;5112627;28;20204;-66
2023/09/05 01:21:35;;;;;;;7.17;3.10;;;12.70;99.90;;;;;;5113507;28;20177;-65
2023/09/05 01:24:21;;;;;;;7.57;2.83;;;12.70;99.90;;;;;;5113415;28;20199;-65
2023/09/05 01:26:48;;;;;;;4.93;2.90;;;12.60;99.90;;;;;;5111620;28;20175;-65
2023/09/05 01:29:18;;;;;;;6.93;2.60;;;12.60;99.90;;;;;;5113205;28;20185;-65
2023/09/05 01:31:45;;;;;;;4.93;3.07;;;12.60;99.90;;;;;;5113202;28;20196;-65
2023/09/05 01:34:10;;;;;;;12.47;3.20;;;12.50;99.90;;;;;;5113211;28;20592;-65
2023/09/05 01:36:36;;;;;;;9.00;3.20;;;12.50;99.90;;;;;;5113118;28;20177;-65
2023/09/05 01:39:02;;;;;;;7.40;3.20;;;12.50;99.90;;;;;;5112328;28;20201;-65
2023/09/05 01:41:27;;;;;;;5.23;2.53;;;12.50;99.90;;;;;;5112858;28;20588;-65
2023/09/05 01:43:53;;;;;;;5.67;3.13;;;12.50;99.90;;;;;;5112786;28;20226;-66
2023/09/05 01:46:18;;;;;;;4.57;2.67;;;12.50;99.90;;;;;;5094474;28;20201;-65
2023/09/05 01:48:44;;;;;;;6.53;3.13;;;12.40;99.90;;;;;;5112096;28;20520;-65
2023/09/05 01:51:10;;;;;;;6.63;2.77;;;12.40;99.90;;;;;;5112667;28;20260;-65
2023/09/05 01:53:35;;;;;;;6.77;2.90;;;12.40;99.90;;;;;;5112534;28;20173;-65
2023/09/05 01:56:01;;;;;;;4.00;2.90;;;12.40;99.90;;;;;;5112494;28;20275;-65
2023/09/05 01:58:26;;;;;;;5.47;3.20;;;12.40;99.90;;;;;;5110755;28;20173;-65
2023/09/05 02:00:52;;;;;;;6.03;2.77;;;12.40;99.90;;;;;;5112295;28;20161;-66
2023/09/05 02:03:17;;;;;;;5.27;2.70;;;12.40;99.90;;;;;;5111987;28;20173;-65
2023/09/05 02:05:43;;;;;;;9.83;3.47;;;12.30;99.90;;;;;;5112525;28;20193;-65
2023/09/05 02:08:09;;;;;;;6.50;2.93;;;12.30;99.90;;;;;;5111583;28;20193;-65
2023/09/05 02:10:34;;;;;;;11.67;2.67;;;12.30;99.90;;;;;;5112183;28;20173;-65
2023/09/05 02:13:00;;;;;;;4.37;2.80;;;12.30;99.90;;;;;;5112284;28;20177;-65
2023/09/05 02:15:26;;;;;;;6.67;2.83;;;12.30;99.90;;;;;;5112084;28;20200;-65
2023/09/05 02:17:51;;;;;;;5.13;3.40;;;12.20;99.90;;;;;;5111431;28;20177;-65
2023/09/05 02:20:17;;;;;;;7.07;3.03;;;12.20;99.90;;;;;;5111949;28;20219;-65
2023/09/05 02:22:44;;;;;;;6.67;2.73;;;12.20;99.90;;;;;;5112134;28;20169;-65
2023/09/05 02:25:11;;;;;;;10.67;3.27;;;12.20;99.90;;;;;;5111928;28;20695;-65
2023/09/05 02:27:37;;;;;;;4.93;3.50;;;12.10;99.90;;;;;;5111462;28;20625;-65
2023/09/05 02:30:06;;;;;;;9.47;3.30;;;12.10;99.90;;;;;;5111972;28;20549;-65
2023/09/05 02:32:32;;;;;;;5.40;3.00;;;12.10;99.90;;;;;;5111897;28;20176;-65
2023/09/05 02:34:58;;;;;;;7.43;3.20;;;12.10;99.90;;;;;;5111750;28;20201;-65
2023/09/05 02:37:24;;;;;;;6.80;3.30;;;12.00;99.90;;;;;;5111360;28;20238;-65
2023/09/05 02:39:49;;;;;;;5.40;2.83;;;12.00;99.90;;;;;;5111866;28;20201;-65
2023/09/05 02:42:15;;;;;;;9.00;2.90;;;12.00;99.90;;;;;;5111780;28;20173;-65
2023/09/05 02:44:40;;;;;;;4.10;2.47;;;12.00;99.90;;;;;;5111558;28;20220;-65
2023/09/05 02:47:06;;;;;;;6.87;3.30;;;12.00;99.90;;;;;;5110928;28;20174;-66
2023/09/05 02:49:32;;;;;;;7.60;3.37;;;12.00;99.90;;;;;;5111543;28;20181;-66
2023/09/05 02:51:57;;;;;;;4.67;2.80;;;11.90;99.90;;;;;;5111686;28;20185;-66
2023/09/05 02:54:23;;;;;;;5.33;2.90;;;11.90;99.90;;;;;;5111007;28;20654;-65
2023/09/05 02:56:50;;;;;;;6.97;2.90;;;11.90;99.90;;;;;;5109577;28;20185;-65
2023/09/05 02:59:15;;;;;;;6.63;3.10;;;11.90;99.90;;;;;;5111106;28;20209;-65
2023/09/05 03:01:41;;;;;;;5.27;3.10;;;11.90;99.90;;;;;;5111341;28;20184;-65
2023/09/05 03:04:06;;;;;;;6.23;3.43;;;11.80;99.90;;;;;;5111377;28;20192;-65
2023/09/05 03:06:32;;;;;;;3.97;2.60;;;11.90;99.90;;;;;;5110954;28;20172;-65
2023/09/05 03:08:57;;;;;;;5.23;3.27;;;11.80;99.90;;;;;;5110743;28;20275;-65
2023/09/05 03:11:23;;;;;;;5.13;3.23;;;11.80;99.90;;;;;;5111263;28;20180;-65
2023/09/05 03:13:50;;;;;;;8.73;2.90;;;11.80;99.90;;;;;;5111197;28;20214;-65
2023/09/05 03:16:16;;;;;;;6.73;3.10;;;11.70;99.90;;;;;;5111389;28;20181;-65
2023/09/05 03:18:42;;;;;;;3.73;2.53;;;11.70;99.90;;;;;;5110553;28;20204;-65
2023/09/05 03:21:07;;;;;;;4.13;2.80;;;11.80;99.90;;;;;;5111297;28;20165;-65
2023/09/05 03:23:34;;;;;;;10.93;3.13;;;11.70;99.90;;;;;;5111395;28;20262;-65
2023/09/05 03:26:00;;;;;;;8.57;3.23;;;11.70;99.90;;;;;;5111284;28;20201;-65
2023/09/05 03:28:44;;;;;;;5.13;3.00;;;11.70;99.90;;;;;;5110367;28;20228;-65
2023/09/05 03:31:10;;;;;;;7.87;2.80;;;11.70;99.90;;;;;;5111184;28;20165;-65
2023/09/05 03:33:35;;;;;;;4.73;2.77;;;11.70;99.90;;;;;;5111050;28;20784;-65
2023/09/05 03:36:01;;;;;;;4.87;2.73;;;11.70;99.90;;;;;;5111120;28;20173;-65
2023/09/05 03:38:27;;;;;;;7.40;3.37;;;11.60;99.90;;;;;;5110485;28;20518;-65
2023/09/05 03:40:55;;;;;;;9.37;2.97;;;11.60;99.90;;;;;;5111136;28;20184;-65
2023/09/05 03:43:21;;;;;;;8.03;2.70;;;11.60;99.90;;;;;;5109957;28;20183;-65
2023/09/05 03:45:48;;;;;;;6.20;3.13;;;11.50;99.90;;;;;;5110877;28;20192;-65
2023/09/05 03:48:13;;;;;;;8.47;3.63;;;11.60;99.90;;;;;;5092381;28;20195;-65
2023/09/05 03:50:39;;;;;;;6.17;2.93;;;11.50;99.90;;;;;;5110844;28;20188;-65
2023/09/05 03:53:05;;;;;;;6.37;3.23;;;11.50;99.90;;;;;;5110811;28;20271;-65
2023/09/05 03:55:34;;;;;;;10.10;3.00;;;11.50;99.90;;;;;;5110594;28;20197;-64
2023/09/05 03:58:04;;;;;;;5.30;3.03;;;11.40;99.90;;;;;;5110156;28;20256;-65
2023/09/05 04:00:32;;;;;;;10.20;3.23;;;11.40;99.90;;;;;;5110717;28;20186;-65
2023/09/05 04:02:58;;;;;;;11.83;3.33;;;11.40;99.90;;;;;;5092596;28;20169;-65
2023/09/05 04:05:24;;;;;;;7.67;2.90;;;11.40;99.90;;;;;;5110687;28;20246;-65
2023/09/05 04:07:50;;;;;;;10.17;3.13;;;11.40;99.90;;;;;;5111647;28;20621;-65
2023/09/05 04:10:15;;;;;;;4.77;3.10;;;11.30;99.90;;;;;;5114723;28;20214;-65
2023/09/05 04:12:41;;;;;;;6.47;3.07;;;11.30;99.90;;;;;;5114505;28;20180;-65
2023/09/05 04:15:07;;;;;;;4.30;3.07;;;11.30;99.90;;;;;;5114534;28;20220;-65
2023/09/05 04:17:33;;;;;;;8.10;2.83;;;11.30;99.90;;;;;;5113918;28;20260;-65
2023/09/05 04:19:58;;;;;;;5.47;3.20;;;11.20;99.90;;;;;;5114697;28;20253;-65
2023/09/05 04:22:27;;;;;;;8.40;2.90;;;11.20;99.90;;;;;;5114546;28;20184;-65
2023/09/05 04:24:54;;;;;;;6.00;2.90;;;11.20;99.90;;;;;;5114419;28;20242;-65
2023/09/05 04:27:21;;;;;;;4.13;2.60;;;11.20;99.90;;;;;;5113782;28;20243;-65
2023/09/05 04:29:51;;;;;;;5.23;2.63;;;11.20;99.90;;;;;;5114409;28;20787;-65
2023/09/05 04:32:30;;;;;;;5.70;3.00;;;11.20;99.90;;;;;;5106851;28;20225;-65
2023/09/05 04:35:01;;;;;;;9.47;3.20;;;11.20;99.90;;;;;;5093801;28;20558;-65
2023/09/05 04:37:28;;;;;;;4.90;2.77;;;11.20;99.90;;;;;;5093190;28;20792;-65
2023/09/05 04:39:54;;;;;;;9.30;3.10;;;11.20;99.90;;;;;;5092638;28;20193;-65
2023/09/05 04:42:21;;;;;;;6.60;3.00;;;11.20;99.90;;;;;;5093713;28;20162;-65
2023/09/05 04:44:47;;;;;;;5.63;2.70;;;11.20;99.90;;;;;;5093775;28;20194;-65
2023/09/05 04:47:23;;;;;;;6.37;3.07;;;11.20;99.90;;;;;;5093097;28;20181;-65
2023/09/05 04:49:50;;;;;;;4.17;2.73;;;11.20;99.90;;;;;;5093526;28;20707;-65
2023/09/05 04:52:17;;;;;;;11.30;3.07;;;11.20;99.90;;;;;;5093858;28;20649;-65
2023/09/05 04:54:42;;;;;;;9.07;3.40;;;11.20;99.90;;;;;;5092962;28;20694;-65
2023/09/05 04:57:10;;;;;;;5.50;3.20;;;11.20;99.90;;;;;;5091226;28;20197;-65
2023/09/05 04:59:37;;;;;;;8.73;3.20;;;11.20;99.90;;;;;;5091846;28;20212;-65
2023/09/05 05:02:03;;;;;;;6.97;3.00;;;11.20;99.90;;;;;;5092534;28;20174;-65
2023/09/05 05:04:29;;;;;;;6.60;3.20;;;11.20;99.90;;;;;;5092527;28;20236;-65
2023/09/05 05:06:54;;;;;;;8.20;3.73;;;11.20;99.90;;;;;;5091760;28;20169;-65
2023/09/05 05:09:20;;;;;;;5.57;3.23;;;11.30;99.90;;;;;;5092236;28;20239;-65
2023/09/05 05:11:45;;;;;;;8.27;3.27;;;11.20;99.90;;;;;;5092279;28;20166;-64
2023/09/05 05:14:11;;;;;;;7.07;3.20;;;11.30;99.90;;;;;;5092325;28;20232;-64
2023/09/05 05:16:37;;;;;;;8.07;2.90;;;11.30;99.90;;;;;;5092050;28;20178;-65
2023/09/05 05:19:03;;;;;;;7.93;2.83;;;11.30;99.90;;;;;;5090998;28;20219;-65
2023/09/05 05:21:28;;;;;;;5.13;2.80;;;11.30;99.90;;;;;;5092394;28;20184;-65
2023/09/05 05:23:55;;;;;;;8.57;3.00;;;11.30;99.90;;;;;;5092090;28;20177;-65
2023/09/05 05:26:20;;;;;;;10.87;3.00;;;11.40;99.90;;;;;;5092113;28;20174;-64
2023/09/05 05:28:46;;;;;;;10.57;3.30;;;11.40;99.90;;;;;;5091299;28;20626;-65
2023/09/05 05:31:14;;;;;;;6.47;3.23;;;11.40;99.90;;;;;;5091881;28;20173;-64
2023/09/05 05:33:40;;;;;;;5.43;3.10;;;11.40;99.90;;;;;;5091724;28;20612;-64
2023/09/05 05:36:05;;;;;;;10.00;4.23;;;11.40;99.90;;;;;;5091775;28;20177;-65
2023/09/05 05:38:31;;;;;;;10.23;3.40;;;11.50;99.90;;;;;;5090994;28;20220;-64
2023/09/05 05:40:58;;;;;;;8.93;3.97;;;11.60;99.90;;;;;;5073423;28;20222;-65
2023/09/05 05:43:27;;;;;;;8.07;3.57;;;11.60;99.90;;;;;;5091746;28;20170;-65
2023/09/05 05:45:52;;;;;;;10.67;3.40;;;11.70;99.90;;;;;;5091751;28;20202;-64
2023/09/05 05:48:19;;;;;;;15.63;3.93;;;11.80;99.90;;;;;;5090904;28;20173;-65
2023/09/05 05:50:44;;;;;;;8.90;4.03;;;11.90;99.90;;;;;;5090316;28;20248;-65
2023/09/05 05:53:10;;;;;;;8.17;3.67;;;12.10;99.90;;;;;;5056432;28;20620;-64
2023/09/05 05:55:35;;;;;;;15.97;3.67;;;12.20;99.90;;;;;;5090621;28;20283;-64
2023/09/05 05:58:01;;;;;;;10.43;3.60;;;12.40;99.90;;;;;;5089754;28;20660;-65
2023/09/05 06:00:29;;;;;;;11.87;3.53;;;12.60;99.90;;;;;;5091206;28;20209;-64
2023/09/05 06:02:55;;;;;;;10.03;3.40;;;12.80;99.90;;;;;;5091192;28;20257;-65
2023/09/05 06:05:22;;;;;;;5.00;3.03;;;13.00;99.90;;;;;;5091048;28;20201;-65
2023/09/05 06:07:48;;;;;;;15.37;3.80;;;13.20;99.90;;;;;;5089490;28;20196;-65
2023/09/05 06:10:14;;;;;;;10.47;3.30;;;13.40;99.90;;;;;;5091077;28;20231;-65
2023/09/05 06:12:40;;;;;;;9.87;3.23;;;13.70;99.90;;;;;;5091271;28;20185;-65
2023/09/05 06:15:06;;;;;;;8.10;3.17;;;13.90;99.90;;;;;;5072810;28;20201;-65
2023/09/05 06:17:31;;;;;;;9.33;3.27;;;14.20;99.90;;;;;;5090410;28;20192;-65
2023/09/05 06:19:57;;;;;;;8.50;3.23;;;14.30;99.90;;;;;;5072659;28;20202;-65
2023/09/05 06:22:22;;;;;;;5.70;2.90;;;14.60;99.90;;;;;;5090855;28;20220;-65
2023/09/05 06:24:48;;;;;;;8.50;3.10;;;14.80;99.90;;;;;;5072758;28;20201;-65
2023/09/05 06:27:13;;;;;;;9.93;2.90;;;15.00;99.90;;;;;;5090454;28;20190;-65
2023/09/05 06:29:39;;;;;;;6.13;2.97;;;15.20;99.90;;;;;;5090746;28;20236;-65
2023/09/05 06:32:05;;;;;;;6.30;3.00;;;15.40;99.90;;;;;;5090492;28;20177;-65
2023/09/05 06:34:31;;;;;;;10.27;3.07;;;15.60;99.90;;;;;;5090637;28;20212;-65
2023/09/05 06:36:57;;;;;;;4.70;2.60;;;15.70;99.90;;;;;;5090319;28;20656;-65
2023/09/05 06:39:22;;;;;;;8.50;3.07;;;15.90;99.90;;;;;;5090281;28;20289;-65
2023/09/05 06:41:48;;;;;;;6.00;2.97;;;16.10;99.90;;;;;;5090632;28;20212;-65
2023/09/05 06:44:15;;;;;;;9.47;2.83;;;16.40;99.90;;;;;;5090597;28;20241;-65
2023/09/05 06:46:41;;;;;;;13.47;3.97;;;16.50;99.90;;;;;;5090511;28;20291;-65
2023/09/05 06:49:06;;;;;;;9.17;3.93;;;16.90;99.90;;;;;;5090085;28;20298;-65
2023/09/05 06:51:32;;;;;;;7.20;2.97;;;17.20;99.90;;;;;;5090843;28;20193;-65
2023/09/05 06:53:58;;;;;;;13.03;3.20;;;17.40;99.90;;;;;;5090223;28;20740;-65
2023/09/05 06:56:24;;;;;;;18.40;3.57;;;17.60;99.90;;;;;;5090430;28;20188;-65
2023/09/05 06:58:50;;;;;;;8.10;3.20;;;17.90;99.90;;;;;;5089970;28;20205;-65
2023/09/05 07:01:15;;;;;;;6.20;2.47;;;18.20;99.90;;;;;;5090270;28;20182;-65
2023/09/05 07:03:41;;;;;;;10.37;2.73;;;18.60;99.90;;;;;;5090282;28;20170;-65
2023/09/05 07:06:06;;;;;;;12.70;3.90;;;18.80;99.90;;;;;;5090343;28;20177;-65
2023/09/05 07:08:32;;;;;;;9.53;2.90;;;19.20;99.90;;;;;;5088461;28;20607;-65
2023/09/05 07:10:58;;;;;;;7.90;2.90;;;19.50;99.90;;;;;;5090220;28;20180;-65
2023/09/05 07:13:24;;;;;;;9.17;3.70;;;19.70;99.90;;;;;;5090199;28;20208;-65
2023/09/05 07:15:51;;;;;;;8.07;3.00;;;20.10;99.90;;;;;;5090071;28;20726;-65
2023/09/05 07:18:17;;;;;;;8.47;2.60;;;20.70;99.90;;;;;;5089649;28;20182;-65
2023/09/05 07:20:42;;;;;;;5.13;2.20;;;21.00;99.90;;;;;;5090011;28;20290;-65
2023/09/05 07:23:08;;;;;;;5.07;2.60;;;21.50;99.90;;;;;;5090610;28;20186;-65
2023/09/05 07:25:40;;;;;;;7.53;2.10;;;21.60;99.90;;;;;;5090013;28;20656;-66
2023/09/05 07:28:06;;;;;;;10.17;2.57;;;22.00;99.90;;;;;;5089654;28;20170;-66
2023/09/05 07:30:32;;;;;;;6.30;2.13;;;22.10;99.90;;;;;;5090006;28;20549;-66
2023/09/05 07:32:59;;;;;;;7.57;2.20;;;22.30;99.90;;;;;;5089980;28;20185;-66
2023/09/05 07:35:24;;;;;;;9.03;2.50;;;22.40;99.90;;;;;;5089864;28;20202;-66
2023/09/05 07:37:51;;;;;;;3.93;1.97;;;22.70;99.90;;;;;;5089713;28;20704;-66
2023/09/05 07:40:16;;;;;;;6.23;2.27;;;22.90;99.90;;;;;;5090009;28;20210;-65
2023/09/05 07:42:42;;;;;;;9.93;2.40;;;22.90;99.90;;;;;;5093381;28;20203;-66
